Wetterdaten: Woche 15.12.08 - 21.12.08 (KW51)
Datum Zeit Temp. A. Feuchte A. Luftdruck Regen Wind Richtung Taupunkt Windchill Windben
15.12.2008 00:00 4,4 C 89 % 1015,5 hPa 0,0 l/m 5,0 km/h (1 Bft) O-SO 2,8 C 4,2 C 13,7 km/h (3 Bft)
15.12.2008 01:00 4,6 C 89 % 1015,6 hPa 0,0 l/m 2,9 km/h (1 Bft) O-SO 2,9 C 4,6 C 12,1 km/h (2 Bft)
15.12.2008 02:00 4,5 C 89 % 1015,9 hPa 0,0 l/m 4,9 km/h (1 Bft) O 2,8 C 4,4 C 14,1 km/h (3 Bft)
15.12.2008 03:00 4,2 C 90 % 1016,0 hPa 0,0 l/m 6,5 km/h (2 Bft) SO 2,7 C 4,0 C 16,9 km/h (3 Bft)
15.12.2008 04:00 4,0 C 89 % 1016,4 hPa 0,0 l/m 6,5 km/h (2 Bft) O-NO 2,4 C 3,8 C 17,7 km/h (3 Bft)
15.12.2008 05:00 3,8 C 90 % 1017,0 hPa 0,0 l/m 6,9 km/h (2 Bft) SO 2,3 C 3,2 C 18,5 km/h (3 Bft)
15.12.2008 06:00 3,5 C 91 % 1017,7 hPa 0,0 l/m 7,2 km/h (2 Bft) SO 2,1 C 2,6 C 17,7 km/h (3 Bft)
15.12.2008 07:00 3,4 C 91 % 1018,2 hPa 0,0 l/m 4,6 km/h (1 Bft) O 2,0 C 3,4 C 14,1 km/h (3 Bft)
15.12.2008 08:00 3,5 C 90 % 1018,6 hPa 0,0 l/m 5,0 km/h (1 Bft) O 2,1 C 3,5 C 14,5 km/h (3 Bft)
15.12.2008 09:00 3,6 C 90 % 1019,2 hPa 0,0 l/m 3,1 km/h (1 Bft) S-SO 2,2 C 3,6 C 10,9 km/h (2 Bft)
15.12.2008 10:00 3,7 C 90 % 1019,7 hPa 0,0 l/m 3,3 km/h (1 Bft) O 2,1 C 3,7 C 10,1 km/h (2 Bft)
15.12.2008 11:00 3,7 C 90 % 1019,8 hPa 0,0 l/m 5,1 km/h (1 Bft) SO 2,2 C 3,7 C 14,1 km/h (3 Bft)
15.12.2008 12:00 3,6 C 90 % 1019,5 hPa 0,0 l/m 3,9 km/h (1 Bft) O 2,2 C 3,6 C 10,5 km/h (2 Bft)
15.12.2008 13:00 3,8 C 90 % 1019,3 hPa 0,0 l/m 4,7 km/h (1 Bft) O 2,3 C 3,8 C 14,9 km/h (3 Bft)
15.12.2008 14:00 3,9 C 89 % 1019,4 hPa 0,0 l/m 3,6 km/h (1 Bft) O 2,2 C 3,9 C 10,5 km/h (2 Bft)
15.12.2008 15:00 4,0 C 88 % 1019,4 hPa 0,0 l/m 5,0 km/h (1 Bft) NO 2,2 C 4,0 C 13,7 km/h (3 Bft)
15.12.2008 16:00 4,1 C 88 % 1019,6 hPa 0,0 l/m 4,6 km/h (1 Bft) O-SO 2,3 C 4,1 C 12,1 km/h (2 Bft)
15.12.2008 17:00 4,1 C 88 % 1019,8 hPa 0,0 l/m 2,3 km/h (1 Bft) SO 2,3 C 4,1 C 7,6 km/h (2 Bft)
15.12.2008 18:00 4,3 C 88 % 1019,9 hPa 0,0 l/m 1,5 km/h (1 Bft) O 2,5 C 4,3 C 6,0 km/h (2 Bft)
15.12.2008 19:00 4,3 C 88 % 1020,0 hPa 0,0 l/m 1,1 km/h (1 Bft) O-SO 2,5 C 4,3 C 6,4 km/h (2 Bft)
15.12.2008 20:00 4,5 C 88 % 1019,8 hPa 0,0 l/m 1,9 km/h (1 Bft) O-SO 2,7 C 4,5 C 8,0 km/h (2 Bft)
15.12.2008 21:00 4,6 C 88 % 1019,8 hPa 0,0 l/m 2,3 km/h (1 Bft) O 2,8 C 4,6 C 6,0 km/h (2 Bft)
15.12.2008 22:00 4,6 C 89 % 1020,0 hPa 0,0 l/m 2,8 km/h (1 Bft) O-SO 2,9 C 4,6 C 6,4 km/h (2 Bft)
15.12.2008 23:00 4,9 C 89 % 1019,6 hPa 0,0 l/m 1,9 km/h (1 Bft) O 3,2 C 4,9 C 8,1 km/h (2 Bft)
16.12.2008 00:00 4,9 C 88 % 1019,2 hPa 0,0 l/m 2,2 km/h (1 Bft) SO 3,1 C 4,9 C 8,0 km/h (2 Bft)
16.12.2008 01:00 4,9 C 89 % 1018,3 hPa 0,0 l/m 2,7 km/h (1 Bft) SO 3,2 C 4,9 C 9,7 km/h (2 Bft)
16.12.2008 02:00 4,9 C 89 % 1018,5 hPa 0,0 l/m 1,3 km/h (1 Bft) O-SO 3,2 C 4,9 C 8,0 km/h (2 Bft)
16.12.2008 03:00 4,7 C 89 % 1018,4 hPa 0,0 l/m 2,0 km/h (1 Bft) O-SO 3,0 C 4,7 C 8,0 km/h (2 Bft)
16.12.2008 04:00 4,4 C 90 % 1017,9 hPa 0,0 l/m 2,1 km/h (1 Bft) O 3,0 C 4,4 C 8,0 km/h (2 Bft)
16.12.2008 05:00 4,4 C 91 % 1017,3 hPa 0,0 l/m 1,7 km/h (1 Bft) O-SO 3,1 C 4,4 C 6,8 km/h (2 Bft)
16.12.2008 06:00 4,4 C 91 % 1017,2 hPa 0,0 l/m 2,8 km/h (1 Bft) SO 3,1 C 4,4 C 7,6 km/h (2 Bft)
16.12.2008 07:00 4,1 C 91 % 1017,2 hPa 0,0 l/m 1,1 km/h (1 Bft) O-SO 2,8 C 4,1 C 5,2 km/h (1 Bft)
16.12.2008 08:00 4,2 C 92 % 1017,5 hPa 0,0 l/m 2,3 km/h (1 Bft) O-SO 3,0 C 4,2 C 7,6 km/h (2 Bft)
16.12.2008 09:00 4,6 C 92 % 1017,8 hPa 0,0 l/m 2,8 km/h (1 Bft) SO 3,4 C 4,6 C 10,5 km/h (2 Bft)
16.12.2008 10:00 4,8 C 91 % 1018,1 hPa 0,0 l/m 3,9 km/h (1 Bft) O-SO 3,4 C 4,8 C 13,7 km/h (3 Bft)
16.12.2008 11:00 4,8 C 91 % 1017,6 hPa 0,0 l/m 4,2 km/h (1 Bft) O-SO 3,5 C 4,8 C 12,5 km/h (3 Bft)
16.12.2008 12:00 5,2 C 91 % 1017,2 hPa 0,0 l/m 3,7 km/h (1 Bft) SO 3,9 C 5,2 C 12,1 km/h (2 Bft)
17.12.2008 07:00 5,0 C 92 % 1010,9 hPa 0,0 l/m 2,4 km/h (1 Bft) SO 3,8 C 5,0 C 3,2 km/h (1 Bft)
17.12.2008 08:00 4,9 C 92 % 1011,0 hPa 0,0 l/m 2,1 km/h (1 Bft) SO 3,7 C 4,9 C 7,6 km/h (2 Bft)
17.12.2008 09:00 4,9 C 92 % 1010,8 hPa 0,0 l/m 2,0 km/h (1 Bft) O 3,8 C 4,9 C 7,6 km/h (2 Bft)
17.12.2008 10:00 4,9 C 93 % 1010,4 hPa 0,0 l/m 2,6 km/h (1 Bft) O-SO 3,8 C 4,9 C 8,8 km/h (2 Bft)
17.12.2008 11:00 5,0 C 93 % 1010,0 hPa 0,0 l/m 2,0 km/h (1 Bft) O-SO 3,9 C 5,0 C 8,0 km/h (2 Bft)
17.12.2008 12:00 5,3 C 93 % 1009,4 hPa 0,0 l/m 2,0 km/h (1 Bft) O 4,2 C 5,3 C 8,0 km/h (2 Bft)
17.12.2008 13:00 5,4 C 93 % 1009,3 hPa 0,0 l/m 1,6 km/h (1 Bft) O-SO 4,3 C 5,4 C 12,9 km/h (3 Bft)
17.12.2008 14:00 5,4 C 93 % 1009,2 hPa 0,0 l/m 1,5 km/h (1 Bft) S 4,3 C 5,4 C 5,9 km/h (2 Bft)
17.12.2008 15:00 5,4 C 93 % 1009,7 hPa 0,9 l/m 0,2 km/h (0 Bft) N 4,4 C 5,4 C 2,4 km/h (1 Bft)
17.12.2008 16:00 5,2 C 93 % 1010,2 hPa 1,5 l/m 1,3 km/h (1 Bft) W-NW 4,1 C 5,2 C 5,3 km/h (1 Bft)
17.12.2008 17:00 4,4 C 93 % 1010,7 hPa 0,9 l/m 0,9 km/h (0 Bft) SW 3,3 C 4,4 C 4,0 km/h (1 Bft)
17.12.2008 18:00 3,9 C 92 % 1011,0 hPa 0,0 l/m 1,7 km/h (1 Bft) W-SW 2,7 C 3,9 C 6,0 km/h (2 Bft)
17.12.2008 19:00 3,6 C 91 % 1011,3 hPa 0,0 l/m 2,9 km/h (1 Bft) W 2,3 C 3,6 C 10,9 km/h (2 Bft)
17.12.2008 20:00 3,6 C 86 % 1011,5 hPa 0,0 l/m 4,5 km/h (1 Bft) W-SW 1,4 C 3,6 C 16,5 km/h (3 Bft)
17.12.2008 21:00 3,8 C 82 % 1011,6 hPa 0,0 l/m 5,3 km/h (1 Bft) NW 1,0 C 3,7 C 17,3 km/h (3 Bft)
17.12.2008 22:00 3,8 C 80 % 1012,2 hPa 0,0 l/m 5,8 km/h (2 Bft) W-NW 0,8 C 3,8 C 18,5 km/h (3 Bft)
17.12.2008 23:00 4,0 C 77 % 1012,2 hPa 0,0 l/m 7,0 km/h (2 Bft) W-SW 0,4 C 3,2 C 20,5 km/h (4 Bft)
18.12.2008 00:00 3,9 C 77 % 1012,2 hPa 0,0 l/m 5,2 km/h (1 Bft) W 0,1 C 3,8 C 16,9 km/h (3 Bft)
18.12.2008 01:00 3,8 C 75 % 1012,1 hPa 0,0 l/m 3,3 km/h (1 Bft) N-NO -0,2 C 3,8 C 12,5 km/h (3 Bft)
18.12.2008 02:00 3,7 C 75 % 1012,6 hPa 0,0 l/m 3,4 km/h (1 Bft) NO -0,3 C 3,7 C 14,9 km/h (3 Bft)
18.12.2008 03:00 3,7 C 74 % 1012,4 hPa 0,0 l/m 5,9 km/h (2 Bft) W -0,5 C 3,5 C 25,8 km/h (4 Bft)
18.12.2008 04:00 3,6 C 74 % 1012,4 hPa 0,0 l/m 9,8 km/h (2 Bft) W-NW -0,6 C 0,7 C 28,2 km/h (4 Bft)
18.12.2008 05:00 3,5 C 74 % 1013,0 hPa 0,0 l/m 10,1 km/h (2 Bft) NW -0,7 C 0,4 C 22,5 km/h (4 Bft)
18.12.2008 06:00 3,4 C 75 % 1013,6 hPa 0,0 l/m 12,2 km/h (2 Bft) W-NW -0,6 C -1,2 C 24,9 km/h (4 Bft)
18.12.2008 07:00 3,4 C 76 % 1014,0 hPa 0,0 l/m 12,6 km/h (3 Bft) W -0,5 C -1,4 C 30,2 km/h (5 Bft)
18.12.2008 08:00 2,6 C 83 % 1014,1 hPa 1,5 l/m 13,4 km/h (3 Bft) NW -0,0 C -2,8 C 31,0 km/h (5 Bft)
18.12.2008 09:00 2,0 C 87 % 1014,9 hPa 0,9 l/m 10,6 km/h (2 Bft) W 0,1 C -1,6 C 24,1 km/h (4 Bft)
18.12.2008 10:00 1,9 C 88 % 1015,1 hPa 0,9 l/m 12,6 km/h (3 Bft) W-NW 0,1 C -3,2 C 29,4 km/h (5 Bft)
18.12.2008 11:00 1,9 C 88 % 1014,9 hPa 1,2 l/m 13,0 km/h (3 Bft) W-NW 0,1 C -3,5 C 30,2 km/h (5 Bft)
18.12.2008 12:00 1,9 C 88 % 1014,8 hPa 0,9 l/m 13,0 km/h (3 Bft) W-NW 0,1 C -3,5 C 29,8 km/h (5 Bft)
18.12.2008 13:00 1,9 C 88 % 1014,5 hPa 1,2 l/m 16,0 km/h (3 Bft) W 0,1 C -5,3 C 32,6 km/h (5 Bft)
18.12.2008 14:00 2,0 C 87 % 1014,7 hPa 0,3 l/m 13,4 km/h (3 Bft) NW -0,0 C -3,6 C 29,4 km/h (5 Bft)
18.12.2008 15:00 1,8 C 87 % 1014,8 hPa 0,3 l/m 13,5 km/h (3 Bft) W -0,1 C -3,8 C 28,2 km/h (4 Bft)
18.12.2008 16:00 1,9 C 87 % 1015,4 hPa 1,5 l/m 15,3 km/h (3 Bft) W-NW -0,0 C -4,8 C 35,0 km/h (5 Bft)
18.12.2008 17:00 1,6 C 88 % 1016,1 hPa 1,5 l/m 13,8 km/h (3 Bft) W-NW -0,1 C -4,3 C 31,8 km/h (5 Bft)
18.12.2008 18:00 1,5 C 88 % 1016,6 hPa 1,5 l/m 14,0 km/h (3 Bft) W-SW -0,2 C -4,5 C 32,6 km/h (5 Bft)
18.12.2008 19:00 1,7 C 88 % 1016,9 hPa 0,9 l/m 13,8 km/h (3 Bft) O-NO -0,1 C -4,2 C 31,0 km/h (5 Bft)
18.12.2008 20:00 1,6 C 88 % 1017,2 hPa 1,2 l/m 15,1 km/h (3 Bft) W-NW -0,2 C -5,1 C 36,6 km/h (5 Bft)
18.12.2008 21:00 1,6 C 88 % 1017,2 hPa 1,2 l/m 14,9 km/h (3 Bft) W -0,2 C -5,0 C 33,0 km/h (5 Bft)
18.12.2008 22:00 2,0 C 87 % 1016,9 hPa 0,6 l/m 16,5 km/h (3 Bft) W 0,1 C -5,4 C 35,8 km/h (5 Bft)
18.12.2008 23:00 2,2 C 87 % 1016,9 hPa 0,3 l/m 15,6 km/h (3 Bft) W 0,2 C -4,7 C 35,8 km/h (5 Bft)
19.12.2008 00:00 2,3 C 86 % 1017,0 hPa 0,3 l/m 15,1 km/h (3 Bft) NW 0,2 C -4,2 C 33,0 km/h (5 Bft)
19.12.2008 01:00 2,4 C 85 % 1016,7 hPa 0,0 l/m 16,5 km/h (3 Bft) NW 0,2 C -4,8 C 39,4 km/h (6 Bft)
19.12.2008 02:00 2,4 C 86 % 1016,8 hPa 0,6 l/m 14,8 km/h (3 Bft) NW 0,3 C -4,0 C 31,8 km/h (5 Bft)
19.12.2008 03:00 2,5 C 87 % 1016,8 hPa 0,3 l/m 16,1 km/h (3 Bft) W-NW 0,5 C -4,6 C 31,4 km/h (5 Bft)
19.12.2008 04:00 2,5 C 86 % 1016,7 hPa 0,9 l/m 16,8 km/h (3 Bft) W-NW 0,5 C -4,9 C 33,0 km/h (5 Bft)
19.12.2008 05:00 2,5 C 87 % 1016,8 hPa 0,9 l/m 15,7 km/h (3 Bft) W-NW 0,5 C -4,3 C 33,0 km/h (5 Bft)
19.12.2008 06:00 2,7 C 87 % 1016,5 hPa 0,9 l/m 16,5 km/h (3 Bft) W 0,7 C -4,5 C 38,2 km/h (5 Bft)
19.12.2008 07:00 2,7 C 86 % 1016,7 hPa 0,3 l/m 18,4 km/h (3 Bft) W-NW 0,6 C -5,4 C 37,0 km/h (5 Bft)
19.12.2008 08:00 2,8 C 84 % 1016,8 hPa 0,6 l/m 20,0 km/h (4 Bft) W-NW 0,4 C -6,0 C 41,4 km/h (6 Bft)
19.12.2008 09:00 3,5 C 78 % 1016,8 hPa 0,0 l/m 18,5 km/h (3 Bft) W-NW 0,0 C -4,5 C 38,6 km/h (5 Bft)
19.12.2008 10:00 4,0 C 77 % 1016,7 hPa 0,0 l/m 16,8 km/h (3 Bft) NW 0,2 C -3,1 C 35,4 km/h (5 Bft)
19.12.2008 11:00 4,5 C 76 % 1016,0 hPa 0,0 l/m 16,9 km/h (3 Bft) W 0,6 C -2,5 C 37,8 km/h (5 Bft)
19.12.2008 12:00 4,5 C 76 % 1015,4 hPa 0,0 l/m 18,0 km/h (3 Bft) W 0,6 C -2,9 C 42,2 km/h (6 Bft)
19.12.2008 13:00 4,4 C 79 % 1015,4 hPa 0,0 l/m 16,7 km/h (3 Bft) W-SW 1,0 C -2,5 C 37,4 km/h (5 Bft)
19.12.2008 14:00 4,4 C 79 % 1015,5 hPa 0,3 l/m 16,3 km/h (3 Bft) NW 1,1 C -2,2 C 35,0 km/h (5 Bft)
19.12.2008 15:00 4,4 C 80 % 1015,8 hPa 0,0 l/m 13,9 km/h (3 Bft) W 1,3 C -1,1 C 32,6 km/h (5 Bft)
19.12.2008 16:00 4,2 C 82 % 1016,4 hPa 0,3 l/m 12,8 km/h (3 Bft) W-NW 1,3 C -0,6 C 30,6 km/h (5 Bft)
19.12.2008 17:00 4,3 C 81 % 1017,0 hPa 0,0 l/m 10,5 km/h (2 Bft) W 1,3 C 1,0 C 23,7 km/h (4 Bft)
19.12.2008 18:00 4,1 C 82 % 1017,8 hPa 0,6 l/m 15,1 km/h (3 Bft) W-NW 1,3 C -2,1 C 31,8 km/h (5 Bft)
19.12.2008 19:00 4,1 C 83 % 1018,7 hPa 0,0 l/m 13,0 km/h (3 Bft) W-NW 1,5 C -0,8 C 27,4 km/h (4 Bft)
19.12.2008 20:00 4,3 C 80 % 1019,4 hPa 0,0 l/m 14,3 km/h (3 Bft) W-SW 1,1 C -1,3 C 33,4 km/h (5 Bft)
19.12.2008 21:00 4,2 C 79 % 1020,3 hPa 0,0 l/m 13,5 km/h (3 Bft) N-NW 0,8 C -1,0 C 29,8 km/h (5 Bft)
19.12.2008 22:00 4,1 C 80 % 1020,9 hPa 0,0 l/m 14,0 km/h (3 Bft) NW 0,9 C -1,5 C 33,4 km/h (5 Bft)
19.12.2008 23:00 3,7 C 80 % 1021,6 hPa 0,0 l/m 11,4 km/h (2 Bft) W 0,6 C -0,3 C 28,5 km/h (4 Bft)
20.12.2008 00:00 3,6 C 80 % 1022,3 hPa 0,0 l/m 12,0 km/h (2 Bft) NW 0,4 C -0,9 C 27,4 km/h (4 Bft)
20.12.2008 01:00 3,4 C 80 % 1023,2 hPa 0,0 l/m 10,4 km/h (2 Bft) W-NW 0,2 C -0,0 C 24,1 km/h (4 Bft)
20.12.2008 02:00 3,2 C 81 % 1023,8 hPa 0,0 l/m 10,4 km/h (2 Bft) NW 0,2 C -0,2 C 24,9 km/h (4 Bft)
20.12.2008 03:00 3,3 C 80 % 1024,1 hPa 0,0 l/m 10,8 km/h (2 Bft) NW 0,3 C -0,3 C 24,5 km/h (4 Bft)
20.12.2008 04:00 3,3 C 78 % 1024,3 hPa 0,0 l/m 10,2 km/h (2 Bft) N-NW -0,1 C 0,1 C 24,9 km/h (4 Bft)
20.12.2008 05:00 3,5 C 74 % 1024,6 hPa 0,0 l/m 10,1 km/h (2 Bft) W -0,8 C 0,4 C 25,3 km/h (4 Bft)
20.12.2008 06:00 3,8 C 71 % 1024,7 hPa 0,0 l/m 14,7 km/h (3 Bft) NW -1,0 C -2,3 C 31,8 km/h (5 Bft)
20.12.2008 07:00 3,7 C 74 % 1024,3 hPa 0,0 l/m 14,5 km/h (3 Bft) N-NW -0,6 C -2,1 C 33,8 km/h (5 Bft)
20.12.2008 08:00 3,8 C 76 % 1023,8 hPa 0,0 l/m 10,7 km/h (2 Bft) W-NW -0,1 C 0,3 C 25,3 km/h (4 Bft)
20.12.2008 09:00 4,5 C 74 % 1023,5 hPa 0,0 l/m 13,0 km/h (3 Bft) NW 0,3 C -0,4 C 30,6 km/h (5 Bft)
20.12.2008 10:00 5,1 C 72 % 1023,7 hPa 0,0 l/m 14,4 km/h (3 Bft) W-NW 0,4 C -0,5 C 32,2 km/h (5 Bft)
20.12.2008 11:00 4,3 C 80 % 1023,0 hPa 0,6 l/m 10,4 km/h (2 Bft) S-SW 1,2 C 1,1 C 26,6 km/h (4 Bft)
20.12.2008 12:00 3,9 C 85 % 1021,7 hPa 1,2 l/m 12,0 km/h (2 Bft) W-NW 1,6 C -0,4 C 27,0 km/h (4 Bft)
20.12.2008 13:00 4,8 C 82 % 1020,4 hPa 0,6 l/m 14,1 km/h (3 Bft) NW 1,9 C -0,7 C 31,0 km/h (5 Bft)
20.12.2008 14:00 5,3 C 79 % 1019,5 hPa 0,3 l/m 17,1 km/h (3 Bft) W-SW 1,9 C -1,6 C 37,4 km/h (5 Bft)
20.12.2008 15:00 5,5 C 77 % 1019,2 hPa 0,0 l/m 17,6 km/h (3 Bft) SW 1,8 C -1,4 C 38,6 km/h (5 Bft)
20.12.2008 16:00 5,3 C 80 % 1019,0 hPa 0,9 l/m 18,4 km/h (3 Bft) W 2,1 C -2,1 C 38,2 km/h (5 Bft)
20.12.2008 17:00 5,1 C 82 % 1019,3 hPa 0,3 l/m 15,9 km/h (3 Bft) W 2,3 C -1,1 C 41,4 km/h (6 Bft)
20.12.2008 18:00 5,2 C 83 % 1019,3 hPa 0,9 l/m 13,8 km/h (3 Bft) W-NW 2,6 C 0,0 C 32,6 km/h (5 Bft)
20.12.2008 19:00 5,9 C 78 % 1018,9 hPa 0,3 l/m 13,4 km/h (3 Bft) W-NW 2,4 C 1,1 C 32,6 km/h (5 Bft)
20.12.2008 20:00 5,7 C 79 % 1018,5 hPa 0,0 l/m 15,4 km/h (3 Bft) W 2,3 C -0,3 C 34,6 km/h (5 Bft)
20.12.2008 21:00 5,8 C 79 % 1019,0 hPa 0,3 l/m 14,3 km/h (3 Bft) W 2,5 C 0,4 C 31,4 km/h (5 Bft)
20.12.2008 22:00 5,9 C 78 % 1018,9 hPa 0,0 l/m 12,0 km/h (2 Bft) W-NW 2,4 C 1,8 C 27,4 km/h (4 Bft)
20.12.2008 23:00 5,8 C 78 % 1019,1 hPa 0,0 l/m 14,1 km/h (3 Bft) W-SW 2,2 C 0,6 C 30,6 km/h (5 Bft)
21.12.2008 00:00 5,6 C 78 % 1019,4 hPa 0,0 l/m 11,5 km/h (2 Bft) W-NW 2,0 C 1,8 C 28,6 km/h (4 Bft)
21.12.2008 01:00 5,8 C 77 % 1020,0 hPa 0,0 l/m 11,7 km/h (2 Bft) W 2,0 C 1,8 C 28,2 km/h (4 Bft)
21.12.2008 02:00 5,7 C 77 % 1021,1 hPa 0,0 l/m 8,5 km/h (2 Bft) NW 2,0 C 4,0 C 23,7 km/h (4 Bft)
21.12.2008 03:00 5,7 C 75 % 1021,6 hPa 0,0 l/m 8,7 km/h (2 Bft) NW 1,6 C 3,8 C 21,3 km/h (4 Bft)
21.12.2008 04:00 5,7 C 74 % 1022,3 hPa 0,0 l/m 10,8 km/h (2 Bft) W-NW 1,4 C 2,5 C 24,1 km/h (4 Bft)
21.12.2008 05:00 5,7 C 69 % 1023,2 hPa 0,0 l/m 9,6 km/h (2 Bft) NW 0,4 C 3,2 C 21,3 km/h (4 Bft)
21.12.2008 06:00 5,6 C 63 % 1024,1 hPa 0,0 l/m 12,6 km/h (3 Bft) W -0,9 C 1,1 C 29,4 km/h (5 Bft)
21.12.2008 07:00 5,4 C 65 % 1024,8 hPa 0,0 l/m 13,1 km/h (3 Bft) W-NW -0,7 C 0,6 C 30,2 km/h (5 Bft)
21.12.2008 08:00 5,2 C 65 % 1025,8 hPa 0,0 l/m 13,6 km/h (3 Bft) W -1,0 C 0,0 C 29,8 km/h (5 Bft)
21.12.2008 09:00 5,4 C 64 % 1026,2 hPa 0,0 l/m 18,1 km/h (3 Bft) W-NW -0,9 C -1,9 C 36,2 km/h (5 Bft)
21.12.2008 10:00 5,9 C 63 % 1026,3 hPa 0,0 l/m 18,8 km/h (3 Bft) NW -0,7 C -1,6 C 36,2 km/h (5 Bft)
21.12.2008 11:00 5,8 C 65 % 1026,3 hPa 0,0 l/m 17,6 km/h (3 Bft) NW -0,3 C -1,1 C 39,0 km/h (6 Bft)
21.12.2008 12:00 5,7 C 66 % 1026,5 hPa 0,0 l/m 16,9 km/h (3 Bft) NW -0,1 C -0,9 C 33,0 km/h (5 Bft)
21.12.2008 13:00 5,8 C 65 % 1026,6 hPa 0,0 l/m 16,3 km/h (3 Bft) W -0,4 C -0,6 C 34,2 km/h (5 Bft)
21.12.2008 14:00 5,7 C 67 % 1026,7 hPa 0,0 l/m 17,5 km/h (3 Bft) N-NW 0,1 C -1,2 C 32,6 km/h (5 Bft)
21.12.2008 15:00 5,8 C 61 % 1026,7 hPa 0,0 l/m 13,4 km/h (3 Bft) NW -1,2 C 0,8 C 29,0 km/h (5 Bft)
21.12.2008 16:00 5,0 C 66 % 1027,1 hPa 0,0 l/m 13,2 km/h (3 Bft) N-NW -0,9 C 0,1 C 31,4 km/h (5 Bft)
21.12.2008 17:00 4,8 C 66 % 1027,7 hPa 0,0 l/m 11,2 km/h (2 Bft) NW -0,9 C 1,1 C 24,9 km/h (4 Bft)
21.12.2008 18:00 5,1 C 70 % 1028,9 hPa 0,0 l/m 9,6 km/h (2 Bft) NW 0,0 C 2,6 C 22,5 km/h (4 Bft)
21.12.2008 19:00 4,9 C 69 % 1029,4 hPa 0,0 l/m 5,8 km/h (2 Bft) N-NW -0,3 C 4,7 C 14,9 km/h (3 Bft)
21.12.2008 20:00 5,2 C 71 % 1029,9 hPa 0,0 l/m 4,6 km/h (1 Bft) NW 0,4 C 5,2 C 14,5 km/h (3 Bft)
21.12.2008 21:00 5,1 C 80 % 1030,0 hPa 0,0 l/m 6,1 km/h (2 Bft) NW 1,8 C 4,8 C 14,1 km/h (3 Bft)
21.12.2008 22:00 4,4 C 87 % 1029,7 hPa 0,6 l/m 4,5 km/h (1 Bft) NW 2,4 C 4,4 C 10,1 km/h (2 Bft)
21.12.2008 23:00 4,6 C 89 % 1029,2 hPa 0,0 l/m 2,7 km/h (1 Bft) N-NO 2,9 C 4,6 C 8,8 km/h (2 Bft)
Min-Datum _ 18.12.08 21.12.08 17.12.08 - 17.12.08 - 21.12.08 19.12.08 17.12.08
_ Min-Zeit 18:15 15:30 13:30 - 15:15 - 15:30 07:45 15:15
Minimum _ 1,4 C 59 % 1009,1 hPa - 0,0 km/h (0 Bft) - -1,6 C -6,3 C 0,0 km/h (0 Bft)
Max-Datum _ 21.12.08 17.12.08 21.12.08 17.12.08 19.12.08 - 17.12.08 16.12.08 19.12.08
_ Max-Zeit 10:30 09:45 21:00 16:00 07:45 - 13:00 12:57 09:00
Maximum _ 6,2 C 93 % 1030,2 hPa 1,5 l/m 20,7 km/h
W-NW (4 Bft)
- 4,4 C 5,4 C 48,3 km/h
NW (6 Bft)
Durchschnitt _ 4,1 C 82 % 1018,4 hPa #31,2 l/m 9,5 km/h (2 Bft) NW 1,3 C 1,0 C 22,8 km/h (4 Bft)